Time;durP1;ratioP1;P1;durP2;ratioP2;P2;SDS_P1;SDS_P2;PMS_P1;PMS_P2;Temp;Humidity;BMP_temperature;BMP_pressure;BME280_temperature;BME280_humidity;BME280_pressure;Samples;Min_cycle;Max_cycle;Signal;HPM_P1;HPM_P2
2023/05/19 00:01:29;;;;;;;5.87;2.53;;;14.10;98.00;;;;;;5032375;28;20450;-68
2023/05/19 00:04:01;;;;;;;4.83;3.03;;;14.10;98.00;;;;;;5031981;28;20454;-67
2023/05/19 00:06:30;;;;;;;7.70;3.00;;;14.30;98.00;;;;;;5032329;28;20462;-68
2023/05/19 00:08:59;;;;;;;4.77;2.50;;;14.30;98.00;;;;;;5032091;28;20512;-67
2023/05/19 00:11:27;;;;;;;4.60;2.57;;;14.30;98.00;;;;;;5032312;28;20458;-67
2023/05/19 00:13:55;;;;;;;3.80;2.47;;;14.30;98.00;;;;;;5032018;28;20513;-67
2023/05/19 00:16:23;;;;;;;4.50;2.83;;;14.30;98.00;;;;;;5032308;28;20990;-67
2023/05/19 00:18:52;;;;;;;6.73;2.30;;;14.30;98.00;;;;;;5031442;28;20459;-68
2023/05/19 00:21:20;;;;;;;8.33;2.97;;;14.30;98.00;;;;;;5032160;28;20450;-67
2023/05/19 00:23:48;;;;;;;3.73;2.13;;;14.40;98.00;;;;;;5032052;28;20458;-67
2023/05/19 00:26:15;;;;;;;4.83;2.30;;;14.30;98.00;;;;;;5032168;28;20937;-67
2023/05/19 00:28:43;;;;;;;5.20;2.63;;;14.40;98.00;;;;;;5032080;28;20812;-68
2023/05/19 00:31:10;;;;;;;4.80;2.67;;;14.20;98.00;;;;;;5031754;28;20455;-67
2023/05/19 00:33:42;;;;;;;5.97;2.97;;;14.30;98.00;;;;;;5031756;28;20471;-69
2023/05/19 00:36:09;;;;;;;5.57;2.93;;;14.30;98.00;;;;;;5031563;28;20985;-68
2023/05/19 00:38:38;;;;;;;4.73;2.77;;;14.30;98.00;;;;;;5031672;28;20454;-67
2023/05/19 00:41:08;;;;;;;6.23;2.43;;;14.20;98.00;;;;;;5031629;28;20455;-67
2023/05/19 00:43:35;;;;;;;13.00;2.77;;;14.10;98.00;;;;;;5031751;28;21177;-68
2023/05/19 00:46:03;;;;;;;9.10;2.93;;;14.00;98.00;;;;;;5031590;28;20461;-67
2023/05/19 00:48:30;;;;;;;2.90;2.50;;;14.00;98.00;;;;;;5031586;28;20451;-67
2023/05/19 00:51:02;;;;;;;4.13;2.70;;;14.00;98.00;;;;;;5031603;28;20452;-67
2023/05/19 00:53:30;;;;;;;4.47;2.60;;;13.90;98.00;;;;;;5031763;28;20477;-67
2023/05/19 00:56:01;;;;;;;4.80;2.80;;;13.90;98.00;;;;;;5031487;28;21133;-68
2023/05/19 00:58:31;;;;;;;5.20;2.80;;;13.90;98.00;;;;;;5031544;28;20465;-68
2023/05/19 01:01:02;;;;;;;4.70;2.63;;;14.00;98.00;;;;;;5031606;28;20472;-68
2023/05/19 01:03:31;;;;;;;5.90;3.00;;;14.00;98.00;;;;;;5031627;28;20450;-67
2023/05/19 01:06:00;;;;;;;3.47;2.40;;;14.00;98.00;;;;;;5031685;28;20794;-68
2023/05/19 01:08:30;;;;;;;5.17;3.10;;;14.00;98.00;;;;;;5031535;28;20465;-69
2023/05/19 01:10:58;;;;;;;9.30;3.07;;;14.00;98.00;;;;;;5031555;28;20936;-67
2023/05/19 01:13:26;;;;;;;5.87;2.80;;;14.00;98.00;;;;;;5031648;28;20541;-68
2023/05/19 01:16:01;;;;;;;4.50;2.40;;;14.10;98.00;;;;;;5030384;28;20567;-67
2023/05/19 01:18:39;;;;;;;5.40;2.60;;;14.00;98.00;;;;;;5031916;28;20811;-67
2023/05/19 01:21:25;;;;;;;6.10;2.93;;;14.00;98.00;;;;;;5031640;28;20458;-67
2023/05/19 01:24:04;;;;;;;7.17;3.10;;;14.10;98.00;;;;;;5031245;28;20512;-67
2023/05/19 01:26:53;;;;;;;4.40;2.50;;;14.00;98.00;;;;;;5031277;28;20962;-67
2023/05/19 01:29:31;;;;;;;5.27;2.53;;;13.90;98.00;;;;;;5031658;28;20465;-67
2023/05/19 01:32:01;;;;;;;6.70;2.47;;;13.80;98.00;;;;;;5034113;28;20530;-67
2023/05/19 01:34:30;;;;;;;5.80;2.60;;;13.80;98.00;;;;;;5034863;28;20480;-67
2023/05/19 01:37:00;;;;;;;4.63;2.50;;;13.70;98.00;;;;;;5034836;28;20464;-67
2023/05/19 01:39:28;;;;;;;3.50;2.40;;;13.70;98.00;;;;;;5034686;28;20811;-69
2023/05/19 01:41:55;;;;;;;3.83;2.57;;;13.80;98.00;;;;;;5034704;28;20458;-67
2023/05/19 01:44:23;;;;;;;6.10;3.00;;;13.90;98.00;;;;;;5034862;28;20454;-67
2023/05/19 01:46:51;;;;;;;5.87;2.63;;;13.90;98.00;;;;;;5034763;28;20458;-66
2023/05/19 01:49:20;;;;;;;6.03;2.77;;;13.90;98.00;;;;;;5033526;28;20461;-67
2023/05/19 01:51:47;;;;;;;4.20;2.50;;;13.90;98.00;;;;;;5034829;28;20857;-68
2023/05/19 01:54:14;;;;;;;3.97;2.53;;;13.80;98.00;;;;;;5034636;28;20462;-67
2023/05/19 01:56:49;;;;;;;3.33;2.43;;;13.90;98.00;;;;;;5034647;28;20462;-67
2023/05/19 01:59:28;;;;;;;4.60;2.60;;;13.70;98.00;;;;;;5034600;28;20466;-67
2023/05/19 02:01:59;;;;;;;4.90;2.90;;;13.50;98.00;;;;;;5034553;28;20554;-67
2023/05/19 02:04:38;;;;;;;7.50;2.70;;;13.60;98.00;;;;;;5034600;28;20461;-68
2023/05/19 02:07:13;;;;;;;4.37;2.50;;;13.50;98.00;;;;;;5034347;28;20473;-67
2023/05/19 02:09:46;;;;;;;4.43;2.60;;;13.40;98.00;;;;;;5034597;28;20936;-67
2023/05/19 02:12:20;;;;;;;3.60;2.67;;;13.10;98.00;;;;;;5033368;28;20468;-67
2023/05/19 02:14:54;;;;;;;5.00;2.80;;;13.00;98.00;;;;;;5034759;28;20878;-68
2023/05/19 02:17:25;;;;;;;7.20;2.80;;;13.00;98.00;;;;;;5034336;28;20933;-67
2023/05/19 02:19:54;;;;;;;4.37;2.60;;;12.90;98.00;;;;;;5033962;28;20549;-68
2023/05/19 02:22:21;;;;;;;5.50;2.60;;;12.90;98.00;;;;;;5034069;28;20467;-67
2023/05/19 02:24:50;;;;;;;5.90;2.77;;;12.80;98.00;;;;;;5033929;28;20458;-67
2023/05/19 02:27:17;;;;;;;4.33;2.50;;;12.80;98.00;;;;;;5033916;28;20516;-67
2023/05/19 02:29:44;;;;;;;3.73;2.50;;;12.70;98.00;;;;;;5033947;28;20952;-68
2023/05/19 02:32:11;;;;;;;4.80;2.60;;;12.60;98.00;;;;;;5033561;28;20463;-67
2023/05/19 02:34:38;;;;;;;4.03;2.50;;;12.60;98.00;;;;;;5033947;28;20848;-68
2023/05/19 02:37:18;;;;;;;4.40;2.80;;;12.40;98.00;;;;;;5033577;28;20455;-69
2023/05/19 02:39:45;;;;;;;5.60;2.27;;;12.40;98.00;;;;;;5033968;28;21111;-67
2023/05/19 02:42:13;;;;;;;4.17;2.47;;;12.30;98.00;;;;;;5032885;28;20462;-67
2023/05/19 02:44:40;;;;;;;4.07;2.60;;;12.20;98.00;;;;;;5033825;28;20530;-67
2023/05/19 02:47:07;;;;;;;3.87;2.40;;;12.10;98.00;;;;;;5032378;28;20456;-67
2023/05/19 02:49:34;;;;;;;4.80;2.63;;;12.00;98.00;;;;;;5033516;28;20859;-67
2023/05/19 02:52:02;;;;;;;5.07;2.93;;;11.90;98.00;;;;;;5032331;28;20929;-68
2023/05/19 02:54:32;;;;;;;4.40;2.70;;;11.80;98.00;;;;;;5032502;28;20889;-69
2023/05/19 02:56:59;;;;;;;4.43;2.80;;;11.70;98.00;;;;;;5033377;28;20465;-67
2023/05/19 02:59:27;;;;;;;4.00;2.30;;;11.70;98.00;;;;;;5033478;28;20459;-67
2023/05/19 03:01:56;;;;;;;4.87;2.70;;;11.70;98.00;;;;;;5033651;28;20458;-67
2023/05/19 03:04:23;;;;;;;12.73;4.40;;;11.60;98.00;;;;;;5033476;28;20473;-68
2023/05/19 03:06:50;;;;;;;7.80;3.60;;;11.60;98.00;;;;;;5053324;28;20462;-68
2023/05/19 03:09:17;;;;;;;4.30;2.57;;;11.50;98.00;;;;;;5052027;28;20517;-67
2023/05/19 03:11:47;;;;;;;5.03;2.50;;;11.40;98.00;;;;;;5052216;28;20818;-68
2023/05/19 03:14:14;;;;;;;4.70;2.27;;;11.40;98.00;;;;;;5053048;28;20466;-67
2023/05/19 03:16:42;;;;;;;6.67;2.50;;;11.40;98.00;;;;;;5052527;28;20565;-67
2023/05/19 03:19:09;;;;;;;6.10;2.60;;;11.40;98.00;;;;;;5052766;28;20790;-68
2023/05/19 03:21:36;;;;;;;4.23;2.70;;;11.20;98.00;;;;;;5052858;28;20520;-67
2023/05/19 03:24:04;;;;;;;5.80;2.93;;;11.10;98.00;;;;;;5052745;28;21002;-67
2023/05/19 03:26:31;;;;;;;4.40;2.40;;;11.00;98.00;;;;;;5052871;28;20469;-67
2023/05/19 03:29:00;;;;;;;6.27;2.80;;;11.00;98.00;;;;;;5052686;28;20456;-68
2023/05/19 03:31:27;;;;;;;4.77;2.20;;;10.90;98.00;;;;;;5052139;28;20509;-67
2023/05/19 03:33:54;;;;;;;3.50;2.77;;;10.80;98.00;;;;;;5052243;28;20531;-68
2023/05/19 03:36:21;;;;;;;5.80;2.77;;;10.70;98.00;;;;;;5052613;28;20492;-67
2023/05/19 03:38:48;;;;;;;6.33;2.53;;;10.70;98.00;;;;;;5052379;28;20989;-67
2023/05/19 03:41:15;;;;;;;3.10;2.40;;;10.60;98.00;;;;;;5052373;28;20517;-67
2023/05/19 03:43:42;;;;;;;4.10;2.40;;;10.70;98.00;;;;;;5034505;28;20466;-68
2023/05/19 03:46:14;;;;;;;6.53;2.57;;;10.70;98.00;;;;;;5052443;28;20464;-67
2023/05/19 03:48:41;;;;;;;8.37;3.00;;;10.80;98.00;;;;;;5051325;28;20460;-68
2023/05/19 03:51:08;;;;;;;5.40;3.10;;;10.70;98.00;;;;;;5052375;28;20455;-67
2023/05/19 03:53:36;;;;;;;3.47;2.53;;;10.80;98.00;;;;;;5052390;28;20975;-68
2023/05/19 03:56:04;;;;;;;3.63;2.33;;;10.90;98.00;;;;;;5052335;28;20480;-67
2023/05/19 03:58:31;;;;;;;5.73;2.80;;;11.00;98.00;;;;;;5051233;28;20492;-67
2023/05/19 04:00:58;;;;;;;3.40;2.40;;;11.00;98.00;;;;;;5052305;28;20455;-67
2023/05/19 04:03:27;;;;;;;4.10;2.30;;;11.10;98.00;;;;;;5052389;28;21001;-68
2023/05/19 04:05:54;;;;;;;4.50;2.50;;;11.00;98.00;;;;;;5052208;28;20554;-67
2023/05/19 04:08:22;;;;;;;4.10;2.57;;;11.00;98.00;;;;;;5052066;28;20456;-67
2023/05/19 04:10:49;;;;;;;3.40;2.20;;;10.90;98.00;;;;;;5052122;28;20472;-67
2023/05/19 04:13:16;;;;;;;6.00;2.20;;;11.00;98.00;;;;;;5051831;28;20461;-67
2023/05/19 04:15:43;;;;;;;5.03;2.50;;;10.90;98.00;;;;;;5051961;28;20480;-67
2023/05/19 04:18:10;;;;;;;4.97;2.47;;;11.00;98.00;;;;;;5051635;28;20463;-67
2023/05/19 04:20:39;;;;;;;4.80;2.50;;;11.00;98.00;;;;;;5051998;28;20544;-67
2023/05/19 04:23:06;;;;;;;6.60;3.43;;;11.10;98.00;;;;;;5051649;28;20466;-67
2023/05/19 04:25:35;;;;;;;3.40;2.37;;;11.10;98.00;;;;;;5051956;28;20832;-67
2023/05/19 04:28:02;;;;;;;5.17;2.50;;;11.00;98.00;;;;;;5050692;28;20553;-67
2023/05/19 04:30:29;;;;;;;3.07;2.27;;;11.00;98.00;;;;;;5051952;28;20461;-67
2023/05/19 04:32:59;;;;;;;4.90;2.80;;;11.00;98.00;;;;;;5051492;28;20482;-67
2023/05/19 04:35:27;;;;;;;4.70;2.90;;;11.10;98.00;;;;;;5050555;28;21005;-68
2023/05/19 04:37:55;;;;;;;4.03;2.40;;;11.20;98.00;;;;;;5051636;28;20502;-67
2023/05/19 04:40:23;;;;;;;4.30;2.40;;;11.30;98.00;;;;;;5050676;28;20533;-67
2023/05/19 04:42:51;;;;;;;3.37;2.50;;;11.30;98.00;;;;;;5051731;28;20954;-67
2023/05/19 04:45:18;;;;;;;3.17;2.27;;;11.30;98.00;;;;;;5051719;28;20463;-68
2023/05/19 04:47:47;;;;;;;4.10;2.50;;;11.40;98.00;;;;;;5051794;28;20460;-67
2023/05/19 04:50:15;;;;;;;4.50;2.80;;;11.40;98.00;;;;;;5050630;28;20538;-67
2023/05/19 04:52:44;;;;;;;3.47;2.30;;;11.50;98.00;;;;;;5051738;28;20480;-67
2023/05/19 04:55:12;;;;;;;5.37;2.90;;;11.60;98.00;;;;;;5050727;28;20446;-67
2023/05/19 04:57:40;;;;;;;5.23;2.40;;;11.70;98.00;;;;;;5051721;28;20463;-67
2023/05/19 05:00:12;;;;;;;9.10;3.23;;;11.90;98.00;;;;;;5051719;28;20455;-68
2023/05/19 05:02:40;;;;;;;3.30;2.30;;;11.90;98.00;;;;;;5051441;28;20491;-68
2023/05/19 05:05:08;;;;;;;4.10;2.60;;;12.00;98.00;;;;;;5051683;28;20461;-67
2023/05/19 05:07:35;;;;;;;5.87;2.57;;;12.10;98.00;;;;;;5055245;28;20459;-67
2023/05/19 05:10:02;;;;;;;6.37;3.00;;;12.30;98.00;;;;;;5055368;28;20459;-67
2023/05/19 05:12:31;;;;;;;2.80;2.03;;;12.50;98.00;;;;;;5055162;28;20540;-68
2023/05/19 05:14:59;;;;;;;6.20;2.90;;;12.50;98.00;;;;;;5054964;28;20460;-68
2023/05/19 05:17:27;;;;;;;6.93;2.47;;;12.60;98.00;;;;;;5054688;28;20484;-67
2023/05/19 05:19:55;;;;;;;5.07;2.57;;;12.70;98.00;;;;;;5053865;28;20505;-67
2023/05/19 05:22:22;;;;;;;3.90;2.50;;;12.80;98.00;;;;;;5053637;28;20461;-66
2023/05/19 05:24:50;;;;;;;3.60;2.30;;;12.90;98.00;;;;;;5055012;28;20454;-69
2023/05/19 05:27:17;;;;;;;5.07;2.60;;;13.00;98.00;;;;;;5055077;28;20511;-67
2023/05/19 05:29:45;;;;;;;5.50;3.00;;;13.00;98.00;;;;;;5055154;28;20515;-67
2023/05/19 05:32:12;;;;;;;5.40;3.00;;;13.20;98.00;;;;;;5054279;28;20469;-67
2023/05/19 05:34:45;;;;;;;4.40;2.70;;;13.30;98.00;;;;;;5054496;28;20460;-67
2023/05/19 05:37:12;;;;;;;4.30;2.50;;;13.30;98.00;;;;;;5055173;28;20496;-67
2023/05/19 05:39:40;;;;;;;6.73;2.60;;;13.30;98.00;;;;;;5055095;28;20475;-67
2023/05/19 05:42:08;;;;;;;3.90;2.50;;;13.40;98.00;;;;;;5054880;28;20461;-67
2023/05/19 05:44:36;;;;;;;4.83;2.23;;;13.40;98.00;;;;;;5054684;28;20464;-68
2023/05/19 05:47:05;;;;;;;4.50;2.60;;;13.20;98.00;;;;;;5053871;28;20833;-68
2023/05/19 05:49:35;;;;;;;3.27;2.30;;;13.10;98.00;;;;;;5054996;28;21065;-68
2023/05/19 05:52:03;;;;;;;4.90;2.40;;;13.10;98.00;;;;;;5054852;28;20478;-67
2023/05/19 05:54:31;;;;;;;5.73;2.90;;;13.20;98.00;;;;;;5054568;28;20464;-66
2023/05/19 05:56:58;;;;;;;4.57;2.70;;;13.30;98.00;;;;;;5054376;28;20827;-67
2023/05/19 05:59:26;;;;;;;6.17;2.73;;;13.40;98.00;;;;;;5054538;28;20796;-68
2023/05/19 06:01:53;;;;;;;7.83;3.00;;;13.40;98.00;;;;;;5054267;28;20459;-74
2023/05/19 06:04:21;;;;;;;15.60;3.20;;;13.60;98.00;;;;;;5054426;28;20476;-75
2023/05/19 06:06:49;;;;;;;9.93;3.07;;;13.60;98.00;;;;;;5054296;28;21011;-74
2023/05/19 06:09:16;;;;;;;5.77;3.00;;;13.70;98.00;;;;;;5054126;28;20468;-74
2023/05/19 06:11:43;;;;;;;4.93;2.97;;;13.70;98.00;;;;;;5054410;28;20480;-75
2023/05/19 06:14:10;;;;;;;9.10;2.77;;;13.70;98.00;;;;;;5054186;28;20457;-75
2023/05/19 06:16:37;;;;;;;4.63;2.97;;;13.90;98.00;;;;;;5053632;28;20485;-75
2023/05/19 06:19:04;;;;;;;4.20;2.70;;;14.00;98.00;;;;;;5053696;28;20457;-75
2023/05/19 06:21:33;;;;;;;5.23;2.53;;;13.90;98.00;;;;;;5054011;28;20453;-75
2023/05/19 06:24:00;;;;;;;7.23;3.40;;;13.90;98.00;;;;;;5052285;28;20462;-73
2023/05/19 06:26:28;;;;;;;5.50;2.87;;;13.70;98.00;;;;;;5054025;28;20465;-73
2023/05/19 06:28:55;;;;;;;7.70;3.00;;;13.60;98.00;;;;;;5053912;28;20461;-73
2023/05/19 06:31:25;;;;;;;4.30;2.73;;;13.70;98.00;;;;;;5053784;28;20536;-73
2023/05/19 06:33:52;;;;;;;4.90;2.70;;;13.70;98.00;;;;;;5051457;28;20453;-73
2023/05/19 06:36:19;;;;;;;6.20;2.60;;;13.90;98.00;;;;;;5053759;28;20876;-72
2023/05/19 06:38:48;;;;;;;6.13;2.90;;;14.00;98.00;;;;;;5053911;28;20465;-74
2023/05/19 06:41:15;;;;;;;5.50;3.40;;;14.10;98.00;;;;;;5054011;28;20469;-75
2023/05/19 06:43:42;;;;;;;6.00;2.73;;;14.20;98.00;;;;;;5054300;28;20822;-74
2023/05/19 06:46:11;;;;;;;4.47;2.50;;;14.20;98.00;;;;;;5053990;28;20551;-73
2023/05/19 06:48:38;;;;;;;6.40;2.67;;;14.40;98.00;;;;;;5053826;28;21015;-73
2023/05/19 06:51:05;;;;;;;4.90;2.77;;;14.40;98.00;;;;;;5053562;28;20457;-73
2023/05/19 06:53:34;;;;;;;4.10;2.60;;;14.60;98.00;;;;;;5053549;28;20453;-73
2023/05/19 06:56:03;;;;;;;5.43;2.63;;;14.60;98.00;;;;;;5053405;28;20576;-74
2023/05/19 06:58:30;;;;;;;6.57;2.93;;;14.80;98.00;;;;;;5053434;28;20975;-74
2023/05/19 07:00:59;;;;;;;6.17;2.87;;;14.90;98.00;;;;;;5053418;28;20457;-74
2023/05/19 07:03:26;;;;;;;5.33;2.70;;;14.90;98.00;;;;;;5053324;28;20455;-74
2023/05/19 07:05:54;;;;;;;6.87;3.13;;;15.00;98.00;;;;;;5052126;28;20465;-73
2023/05/19 07:08:21;;;;;;;7.87;3.07;;;15.10;98.00;;;;;;5052075;28;20462;-74
2023/05/19 07:10:49;;;;;;;5.83;2.50;;;15.30;98.00;;;;;;5053514;28;20462;-74
2023/05/19 07:13:17;;;;;;;6.03;2.77;;;15.20;98.00;;;;;;5053373;28;20877;-74
2023/05/19 07:15:44;;;;;;;7.07;2.60;;;15.20;98.00;;;;;;5051832;28;20956;-74
2023/05/19 07:18:14;;;;;;;9.40;3.63;;;15.00;98.00;;;;;;5052936;28;20515;-74
2023/05/19 07:20:41;;;;;;;6.03;2.80;;;15.00;98.00;;;;;;5053190;28;20821;-75
2023/05/19 07:23:08;;;;;;;6.83;2.80;;;15.10;98.00;;;;;;5052945;28;20450;-72
2023/05/19 07:25:41;;;;;;;5.50;2.80;;;15.10;98.00;;;;;;5052986;28;20829;-73
2023/05/19 07:28:08;;;;;;;6.10;3.00;;;15.00;98.00;;;;;;5052642;28;20462;-73
2023/05/19 07:30:39;;;;;;;5.43;2.63;;;15.10;98.00;;;;;;5051726;28;20460;-72
2023/05/19 07:33:07;;;;;;;4.17;2.70;;;15.20;98.00;;;;;;5033428;28;20473;-75
2023/05/19 07:35:34;;;;;;;6.97;3.10;;;15.20;98.00;;;;;;5052026;28;20472;-73
2023/05/19 07:38:01;;;;;;;3.47;2.40;;;15.10;98.00;;;;;;5051607;28;20520;-74
2023/05/19 07:40:28;;;;;;;6.57;2.67;;;15.10;98.00;;;;;;5052084;28;20460;-74
2023/05/19 07:42:55;;;;;;;11.43;3.00;;;15.00;98.00;;;;;;5051901;28;20464;-73
2023/05/19 07:45:22;;;;;;;4.27;2.67;;;14.90;98.00;;;;;;5051638;28;20970;-74
2023/05/19 07:47:54;;;;;;;6.47;3.03;;;14.90;98.00;;;;;;5051736;28;20461;-73
2023/05/19 07:50:21;;;;;;;5.93;3.37;;;14.80;98.00;;;;;;5051774;28;20460;-74
2023/05/19 07:52:48;;;;;;;6.50;2.90;;;15.00;98.00;;;;;;5051596;28;20465;-73
2023/05/19 07:55:15;;;;;;;5.47;2.80;;;15.00;98.00;;;;;;5051389;28;20483;-74
2023/05/19 07:57:44;;;;;;;5.97;2.90;;;15.10;98.00;;;;;;5051257;28;20478;-73
2023/05/19 08:00:12;;;;;;;7.90;2.70;;;15.10;98.00;;;;;;5050041;28;20466;-75
2023/05/19 08:02:40;;;;;;;7.53;3.10;;;15.10;98.00;;;;;;5051458;28;20456;-75
2023/05/19 08:05:10;;;;;;;4.43;2.80;;;15.10;98.00;;;;;;5049865;28;20983;-73
2023/05/19 08:07:38;;;;;;;8.23;2.80;;;15.10;98.00;;;;;;5051007;28;20753;-73
2023/05/19 08:10:06;;;;;;;7.93;2.90;;;15.20;98.00;;;;;;5051272;28;20553;-74
2023/05/19 08:12:33;;;;;;;6.90;2.90;;;15.30;98.00;;;;;;5051279;28;20466;-75
2023/05/19 08:15:00;;;;;;;5.70;2.70;;;15.30;98.00;;;;;;5051510;28;20821;-74
2023/05/19 08:17:27;;;;;;;7.00;2.60;;;15.10;98.00;;;;;;5051145;28;20481;-64
2023/05/19 08:19:54;;;;;;;7.20;2.97;;;15.20;98.00;;;;;;5051175;28;20458;-72
2023/05/19 08:22:22;;;;;;;5.73;2.77;;;15.70;98.00;;;;;;5051026;28;21002;-72
2023/05/19 08:24:52;;;;;;;6.60;2.97;;;15.70;98.00;;;;;;5051035;28;20892;-73
2023/05/19 08:27:19;;;;;;;6.40;3.10;;;15.80;98.00;;;;;;5051481;28;20457;-72
2023/05/19 08:29:46;;;;;;;5.17;2.80;;;15.60;98.00;;;;;;5051079;28;20487;-72
2023/05/19 08:32:13;;;;;;;4.50;2.50;;;15.50;98.00;;;;;;5050944;28;20465;-72
2023/05/19 08:34:40;;;;;;;5.50;3.03;;;15.60;98.00;;;;;;5049879;28;20527;-72
2023/05/19 08:37:07;;;;;;;7.63;3.37;;;15.70;98.00;;;;;;5050188;28;20481;-72
2023/05/19 08:39:35;;;;;;;6.90;3.50;;;15.80;98.00;;;;;;5051055;28;20516;-72
2023/05/19 08:42:06;;;;;;;5.93;2.70;;;15.70;98.00;;;;;;5050706;28;20462;-72
2023/05/19 08:44:33;;;;;;;4.40;2.83;;;15.70;98.00;;;;;;5050843;28;20453;-72
2023/05/19 08:47:03;;;;;;;5.17;2.80;;;15.50;98.00;;;;;;5050881;28;21030;-72
2023/05/19 08:49:33;;;;;;;5.27;3.13;;;15.60;98.00;;;;;;5050465;28;20458;-72
2023/05/19 08:52:06;;;;;;;5.80;3.00;;;15.50;98.00;;;;;;5050779;28;20453;-73
2023/05/19 08:54:42;;;;;;;3.37;2.50;;;15.60;98.00;;;;;;5050958;28;20549;-72
2023/05/19 08:57:10;;;;;;;4.77;2.80;;;15.60;98.00;;;;;;5050545;28;20486;-72
2023/05/19 08:59:39;;;;;;;4.40;2.70;;;15.70;98.00;;;;;;5050777;28;20508;-72
2023/05/19 09:02:07;;;;;;;5.33;2.90;;;15.80;98.00;;;;;;5050717;28;20839;-73
2023/05/19 09:04:35;;;;;;;5.17;2.70;;;15.70;98.00;;;;;;5049262;28;20465;-73
2023/05/19 09:07:03;;;;;;;7.47;2.97;;;15.70;98.00;;;;;;5050397;28;20560;-72
2023/05/19 09:09:30;;;;;;;5.03;2.57;;;15.70;98.00;;;;;;5050381;28;20468;-73
2023/05/19 09:11:59;;;;;;;6.43;2.90;;;15.80;98.00;;;;;;5050540;28;20457;-72
2023/05/19 09:14:30;;;;;;;8.10;3.23;;;15.80;98.00;;;;;;5050610;28;20458;-72
2023/05/19 09:16:57;;;;;;;5.40;2.80;;;15.90;98.00;;;;;;5050333;28;20987;-73
2023/05/19 09:19:28;;;;;;;5.30;3.10;;;16.00;98.00;;;;;;5050472;28;20457;-72
2023/05/19 09:21:59;;;;;;;5.13;3.00;;;16.20;98.00;;;;;;5050636;28;20449;-73
2023/05/19 09:24:28;;;;;;;5.00;2.97;;;16.20;98.00;;;;;;5050596;28;20547;-72
2023/05/19 09:26:56;;;;;;;4.57;2.70;;;16.30;98.00;;;;;;5050415;28;20458;-73
2023/05/19 09:29:25;;;;;;;4.50;3.00;;;16.40;98.00;;;;;;5050496;28;20465;-73
2023/05/19 09:31:54;;;;;;;5.83;2.60;;;16.50;98.00;;;;;;5050337;28;20831;-72
2023/05/19 09:34:23;;;;;;;8.87;2.87;;;16.50;98.00;;;;;;5050424;28;20461;-72
2023/05/19 09:36:51;;;;;;;4.50;2.70;;;16.60;98.00;;;;;;5050353;28;20457;-72
2023/05/19 09:39:20;;;;;;;5.17;3.07;;;16.60;98.00;;;;;;5050462;28;20576;-72
2023/05/19 09:41:51;;;;;;;8.47;3.00;;;16.70;98.00;;;;;;5051134;28;20465;-72
2023/05/19 09:44:27;;;;;;;4.80;2.80;;;16.60;98.00;;;;;;5049065;28;20480;-72
2023/05/19 09:46:55;;;;;;;5.37;3.00;;;16.50;98.00;;;;;;5050310;28;20538;-72
2023/05/19 09:49:23;;;;;;;7.27;2.67;;;16.60;98.00;;;;;;5048367;28;20450;-73
2023/05/19 09:51:53;;;;;;;6.53;3.27;;;16.50;98.00;;;;;;5051403;28;20527;-73
2023/05/19 09:54:22;;;;;;;6.40;3.20;;;16.40;98.00;;;;;;5053714;28;20477;-72
2023/05/19 09:56:58;;;;;;;6.73;2.90;;;16.40;98.00;;;;;;5053594;28;20460;-72
2023/05/19 09:59:31;;;;;;;5.20;3.00;;;16.50;98.00;;;;;;5053601;28;20493;-72
2023/05/19 10:01:59;;;;;;;6.57;2.93;;;16.50;98.00;;;;;;5053714;28;20456;-73
2023/05/19 10:04:28;;;;;;;6.30;2.90;;;16.40;98.00;;;;;;5053752;28;20465;-72
2023/05/19 10:06:58;;;;;;;5.57;2.77;;;16.50;98.00;;;;;;5054082;28;20462;-73
2023/05/19 10:09:27;;;;;;;6.23;2.90;;;16.50;98.00;;;;;;5053969;28;20461;-72
2023/05/19 10:11:56;;;;;;;6.30;2.80;;;16.50;98.00;;;;;;5054081;28;20454;-73
2023/05/19 10:14:24;;;;;;;5.40;3.00;;;16.60;98.00;;;;;;5053718;28;20923;-73
2023/05/19 10:16:55;;;;;;;4.77;2.80;;;16.60;98.00;;;;;;5053620;28;20458;-73
2023/05/19 10:19:23;;;;;;;5.27;2.60;;;16.60;98.00;;;;;;5053494;28;20457;-73
2023/05/19 10:21:52;;;;;;;4.40;2.60;;;16.60;98.00;;;;;;5053488;28;20458;-73
2023/05/19 10:24:20;;;;;;;5.50;2.67;;;16.40;98.00;;;;;;5053863;28;20462;-73
2023/05/19 10:26:55;;;;;;;5.50;2.67;;;16.20;98.00;;;;;;5054207;28;20458;-73
2023/05/19 10:29:26;;;;;;;4.90;2.90;;;16.00;98.00;;;;;;5052746;28;20464;-73
2023/05/19 10:32:00;;;;;;;6.80;3.13;;;16.00;98.00;;;;;;5053818;28;20466;-72
2023/05/19 10:34:49;;;;;;;5.60;2.80;;;15.90;98.00;;;;;;5052217;28;20473;-73
2023/05/19 10:37:27;;;;;;;3.53;2.50;;;16.00;98.00;;;;;;5053711;28;20481;-73
2023/05/19 10:39:55;;;;;;;6.23;2.70;;;16.00;98.00;;;;;;5053272;28;20831;-72
2023/05/19 10:42:34;;;;;;;4.87;2.60;;;16.00;98.00;;;;;;5053452;28;21013;-73
2023/05/19 10:45:09;;;;;;;6.43;2.80;;;15.90;98.00;;;;;;5054547;28;20492;-73
2023/05/19 10:47:40;;;;;;;5.40;2.70;;;16.00;98.00;;;;;;5057660;28;20870;-73
2023/05/19 10:50:08;;;;;;;4.80;2.50;;;16.00;98.00;;;;;;5053345;28;20465;-73
2023/05/19 10:52:38;;;;;;;4.90;2.73;;;15.90;98.00;;;;;;5053335;28;20457;-73
2023/05/19 10:55:08;;;;;;;4.33;2.77;;;16.00;98.00;;;;;;5053196;28;20461;-73
2023/05/19 10:57:36;;;;;;;7.47;2.77;;;16.20;98.00;;;;;;5053222;28;20477;-73
2023/05/19 11:00:25;;;;;;;5.70;3.07;;;16.20;98.00;;;;;;5053145;28;20466;-73
2023/05/19 11:02:56;;;;;;;4.17;2.87;;;16.30;98.00;;;;;;5052393;28;20458;-73
2023/05/19 11:05:31;;;;;;;5.83;2.80;;;16.30;98.00;;;;;;5053212;28;20446;-70
2023/05/19 11:08:01;;;;;;;4.50;2.70;;;16.30;98.00;;;;;;5035839;28;20461;-70
2023/05/19 11:10:28;;;;;;;9.60;2.63;;;16.20;98.00;;;;;;5053082;28;20457;-70
2023/05/19 11:12:57;;;;;;;5.23;3.07;;;16.30;98.00;;;;;;5052548;28;20472;-72
2023/05/19 11:15:27;;;;;;;6.00;2.67;;;16.30;98.00;;;;;;5053054;28;20457;-72
2023/05/19 11:17:55;;;;;;;4.70;2.70;;;16.40;98.00;;;;;;5052863;28;20513;-72
2023/05/19 11:20:24;;;;;;;4.60;2.90;;;16.40;98.00;;;;;;5053100;28;20457;-72
2023/05/19 11:23:08;;;;;;;4.43;2.63;;;16.50;98.00;;;;;;5052960;28;20890;-72
2023/05/19 11:25:42;;;;;;;5.47;3.00;;;16.50;98.00;;;;;;5052806;28;20535;-71
2023/05/19 11:28:12;;;;;;;7.70;2.93;;;16.40;98.00;;;;;;5052688;28;20507;-72
2023/05/19 11:30:41;;;;;;;5.50;3.03;;;16.40;98.00;;;;;;5052539;28;20466;-71
2023/05/19 11:33:10;;;;;;;5.30;3.03;;;16.50;98.00;;;;;;5052332;28;20466;-72
2023/05/19 11:35:38;;;;;;;5.90;3.17;;;16.50;98.00;;;;;;5052529;28;20453;-72
2023/05/19 11:38:06;;;;;;;8.40;3.27;;;16.50;98.00;;;;;;5052410;28;20484;-72
2023/05/19 11:40:34;;;;;;;6.63;2.90;;;16.40;98.00;;;;;;5052383;28;20476;-72
2023/05/19 11:43:01;;;;;;;5.23;2.70;;;16.50;98.00;;;;;;5050712;28;20461;-72
2023/05/19 11:45:31;;;;;;;7.63;3.13;;;16.50;98.00;;;;;;5051172;28;20458;-71
2023/05/19 11:47:58;;;;;;;7.33;3.27;;;16.50;98.00;;;;;;5051382;28;20496;-72
2023/05/19 11:50:28;;;;;;;5.20;2.90;;;16.60;98.00;;;;;;5052463;28;20497;-73
2023/05/19 11:52:55;;;;;;;5.13;3.00;;;16.70;98.00;;;;;;5051853;28;20457;-68
2023/05/19 11:55:26;;;;;;;7.60;3.00;;;16.60;98.00;;;;;;5051484;28;20550;-73
2023/05/19 11:58:00;;;;;;;4.77;2.90;;;16.60;98.00;;;;;;5051162;28;20486;-73
2023/05/19 12:00:29;;;;;;;5.60;3.10;;;16.60;98.00;;;;;;5051649;28;20882;-75
2023/05/19 12:02:57;;;;;;;9.90;2.70;;;16.60;98.00;;;;;;5051405;28;20461;-73
2023/05/19 12:05:25;;;;;;;4.80;2.70;;;16.70;98.00;;;;;;5051514;28;20468;-75
2023/05/19 12:07:54;;;;;;;5.30;3.00;;;16.70;98.00;;;;;;5051137;28;20465;-75
2023/05/19 12:10:22;;;;;;;6.47;3.00;;;16.70;98.00;;;;;;5051292;28;20974;-74
2023/05/19 12:12:51;;;;;;;5.87;2.73;;;16.70;98.00;;;;;;5051331;28;20458;-74
2023/05/19 12:15:20;;;;;;;5.80;3.10;;;16.80;98.00;;;;;;5050293;28;20458;-73
2023/05/19 12:17:50;;;;;;;7.03;3.50;;;16.90;98.00;;;;;;5050167;28;20590;-74
2023/05/19 12:20:18;;;;;;;4.10;2.83;;;17.00;98.00;;;;;;5051210;28;20542;-76
2023/05/19 12:22:46;;;;;;;5.70;2.97;;;17.00;98.00;;;;;;5051299;28;20446;-73
2023/05/19 12:25:15;;;;;;;6.23;3.20;;;17.00;98.00;;;;;;5051055;28;20551;-74
2023/05/19 12:27:43;;;;;;;4.17;2.70;;;17.00;98.00;;;;;;5051141;28;20469;-68
2023/05/19 12:30:12;;;;;;;6.57;3.20;;;16.80;98.00;;;;;;5050504;28;20972;-68
2023/05/19 12:32:39;;;;;;;7.77;3.47;;;16.80;98.00;;;;;;5050957;28;20489;-68
2023/05/19 12:35:07;;;;;;;5.13;3.27;;;16.70;98.00;;;;;;5050485;28;20473;-69
2023/05/19 12:37:36;;;;;;;8.67;3.50;;;16.70;98.00;;;;;;5051330;28;20484;-68
2023/05/19 12:40:08;;;;;;;6.17;3.37;;;16.80;98.00;;;;;;5051078;28;20450;-68
2023/05/19 12:42:37;;;;;;;7.37;2.80;;;17.00;98.00;;;;;;5051489;28;20958;-67
2023/05/19 12:45:05;;;;;;;6.60;3.10;;;16.90;98.00;;;;;;5051483;28;20466;-69
2023/05/19 12:47:34;;;;;;;4.43;2.97;;;17.00;98.00;;;;;;5051490;28;20461;-69
2023/05/19 12:50:03;;;;;;;6.53;3.37;;;16.90;98.00;;;;;;5050876;28;20457;-67
2023/05/19 12:52:34;;;;;;;8.77;3.20;;;16.90;98.00;;;;;;5051117;28;20820;-67
2023/05/19 12:55:05;;;;;;;4.20;2.80;;;16.90;98.00;;;;;;5051237;28;20485;-68